sensor_id;sensor_type;location;lat;lon;timestamp;P1;durP1;ratioP1;P2;durP2;ratioP2
49626;SDS011;35527;54.616;39.786;2023-02-19T00:02:19;8.25;;;3.85;;
49626;SDS011;35527;54.616;39.786;2023-02-19T00:05:23;7.43;;;3.13;;
49626;SDS011;35527;54.616;39.786;2023-02-19T00:08:27;11.57;;;5.13;;
49626;SDS011;35527;54.616;39.786;2023-02-19T00:11:33;7.63;;;2.95;;
49626;SDS011;35527;54.616;39.786;2023-02-19T00:14:37;7.75;;;3.35;;
49626;SDS011;35527;54.616;39.786;2023-02-19T00:17:43;11.40;;;4.35;;
49626;SDS011;35527;54.616;39.786;2023-02-19T00:20:46;8.90;;;4.07;;
49626;SDS011;35527;54.616;39.786;2023-02-19T00:23:52;11.57;;;5.03;;
49626;SDS011;35527;54.616;39.786;2023-02-19T00:26:57;8.43;;;3.55;;
49626;SDS011;35527;54.616;39.786;2023-02-19T00:30:02;9.50;;;4.38;;
49626;SDS011;35527;54.616;39.786;2023-02-19T00:36:12;10.32;;;2.38;;
49626;SDS011;35527;54.616;39.786;2023-02-19T00:39:15;7.22;;;3.30;;
49626;SDS011;35527;54.616;39.786;2023-02-19T00:42:20;8.30;;;3.67;;
49626;SDS011;35527;54.616;39.786;2023-02-19T00:45:24;7.65;;;3.05;;
49626;SDS011;35527;54.616;39.786;2023-02-19T00:48:29;10.57;;;4.57;;
49626;SDS011;35527;54.616;39.786;2023-02-19T00:51:32;8.07;;;2.97;;
49626;SDS011;35527;54.616;39.786;2023-02-19T00:54:39;6.57;;;3.25;;
49626;SDS011;35527;54.616;39.786;2023-02-19T00:57:43;6.13;;;2.83;;
49626;SDS011;35527;54.616;39.786;2023-02-19T01:00:49;8.07;;;3.40;;
49626;SDS011;35527;54.616;39.786;2023-02-19T01:03:56;8.88;;;3.78;;
49626;SDS011;35527;54.616;39.786;2023-02-19T01:07:01;8.05;;;3.72;;
49626;SDS011;35527;54.616;39.786;2023-02-19T01:10:04;9.63;;;4.25;;
49626;SDS011;35527;54.616;39.786;2023-02-19T01:13:08;7.53;;;3.55;;
49626;SDS011;35527;54.616;39.786;2023-02-19T01:16:21;9.10;;;3.78;;
49626;SDS011;35527;54.616;39.786;2023-02-19T01:19:51;10.00;;;4.75;;
49626;SDS011;35527;54.616;39.786;2023-02-19T01:22:55;9.82;;;4.43;;
49626;SDS011;35527;54.616;39.786;2023-02-19T01:26:02;6.07;;;2.72;;
49626;SDS011;35527;54.616;39.786;2023-02-19T01:29:08;8.05;;;3.17;;
49626;SDS011;35527;54.616;39.786;2023-02-19T01:32:13;8.50;;;3.28;;
49626;SDS011;35527;54.616;39.786;2023-02-19T01:35:17;7.20;;;3.55;;
49626;SDS011;35527;54.616;39.786;2023-02-19T01:38:24;6.18;;;2.83;;
49626;SDS011;35527;54.616;39.786;2023-02-19T01:41:27;7.47;;;3.65;;
49626;SDS011;35527;54.616;39.786;2023-02-19T01:47:34;7.43;;;3.28;;
49626;SDS011;35527;54.616;39.786;2023-02-19T01:50:52;8.32;;;4.22;;
49626;SDS011;35527;54.616;39.786;2023-02-19T01:54:00;9.32;;;5.03;;
49626;SDS011;35527;54.616;39.786;2023-02-19T01:57:06;8.30;;;3.40;;
49626;SDS011;35527;54.616;39.786;2023-02-19T02:00:16;8.75;;;3.78;;
49626;SDS011;35527;54.616;39.786;2023-02-19T02:03:19;2.50;;;1.27;;
49626;SDS011;35527;54.616;39.786;2023-02-19T02:06:51;8.52;;;3.95;;
49626;SDS011;35527;54.616;39.786;2023-02-19T02:09:55;8.15;;;3.40;;
49626;SDS011;35527;54.616;39.786;2023-02-19T02:13:17;9.15;;;4.45;;
49626;SDS011;35527;54.616;39.786;2023-02-19T02:19:55;9.40;;;4.47;;
49626;SDS011;35527;54.616;39.786;2023-02-19T02:30:43;5.53;;;2.85;;
49626;SDS011;35527;54.616;39.786;2023-02-19T02:34:06;9.70;;;4.32;;
49626;SDS011;35527;54.616;39.786;2023-02-19T02:37:19;6.80;;;3.45;;
49626;SDS011;35527;54.616;39.786;2023-02-19T02:40:24;6.55;;;3.10;;
49626;SDS011;35527;54.616;39.786;2023-02-19T02:43:27;7.65;;;3.42;;
49626;SDS011;35527;54.616;39.786;2023-02-19T02:46:34;11.07;;;4.63;;
49626;SDS011;35527;54.616;39.786;2023-02-19T02:49:43;7.05;;;3.38;;
49626;SDS011;35527;54.616;39.786;2023-02-19T02:53:08;9.57;;;3.28;;
49626;SDS011;35527;54.616;39.786;2023-02-19T02:56:37;11.43;;;4.22;;
49626;SDS011;35527;54.616;39.786;2023-02-19T02:59:44;7.88;;;4.13;;
49626;SDS011;35527;54.616;39.786;2023-02-19T03:02:54;7.18;;;3.55;;
49626;SDS011;35527;54.616;39.786;2023-02-19T03:05:59;9.60;;;4.80;;
49626;SDS011;35527;54.616;39.786;2023-02-19T03:09:10;10.10;;;4.35;;
49626;SDS011;35527;54.616;39.786;2023-02-19T03:12:18;10.93;;;5.13;;
49626;SDS011;35527;54.616;39.786;2023-02-19T03:15:43;7.88;;;3.78;;
49626;SDS011;35527;54.616;39.786;2023-02-19T03:19:09;9.27;;;4.38;;
49626;SDS011;35527;54.616;39.786;2023-02-19T03:22:30;8.02;;;3.10;;
49626;SDS011;35527;54.616;39.786;2023-02-19T03:25:39;10.80;;;4.90;;
49626;SDS011;35527;54.616;39.786;2023-02-19T03:29:11;12.00;;;4.43;;
49626;SDS011;35527;54.616;39.786;2023-02-19T03:32:41;11.45;;;4.85;;
49626;SDS011;35527;54.616;39.786;2023-02-19T03:35:53;7.65;;;3.35;;
49626;SDS011;35527;54.616;39.786;2023-02-19T03:39:07;6.40;;;3.45;;
49626;SDS011;35527;54.616;39.786;2023-02-19T03:42:24;10.13;;;5.00;;
49626;SDS011;35527;54.616;39.786;2023-02-19T03:46:08;10.93;;;4.60;;
49626;SDS011;35527;54.616;39.786;2023-02-19T03:49:24;10.60;;;4.55;;
49626;SDS011;35527;54.616;39.786;2023-02-19T03:56:16;8.52;;;4.22;;
49626;SDS011;35527;54.616;39.786;2023-02-19T03:59:42;10.07;;;4.35;;
49626;SDS011;35527;54.616;39.786;2023-02-19T04:06:31;9.77;;;3.97;;
49626;SDS011;35527;54.616;39.786;2023-02-19T04:09:35;9.03;;;4.33;;
49626;SDS011;35527;54.616;39.786;2023-02-19T04:12:50;8.23;;;3.47;;
49626;SDS011;35527;54.616;39.786;2023-02-19T04:15:59;10.30;;;3.95;;
49626;SDS011;35527;54.616;39.786;2023-02-19T04:19:10;13.75;;;5.30;;
49626;SDS011;35527;54.616;39.786;2023-02-19T04:22:15;10.45;;;3.30;;
49626;SDS011;35527;54.616;39.786;2023-02-19T04:25:25;9.20;;;4.25;;
49626;SDS011;35527;54.616;39.786;2023-02-19T04:28:29;9.82;;;5.15;;
49626;SDS011;35527;54.616;39.786;2023-02-19T04:31:34;10.18;;;4.03;;
49626;SDS011;35527;54.616;39.786;2023-02-19T04:34:41;9.75;;;4.45;;
49626;SDS011;35527;54.616;39.786;2023-02-19T04:37:46;11.13;;;4.30;;
49626;SDS011;35527;54.616;39.786;2023-02-19T04:40:49;12.07;;;5.88;;
49626;SDS011;35527;54.616;39.786;2023-02-19T04:43:54;8.25;;;3.92;;
49626;SDS011;35527;54.616;39.786;2023-02-19T04:46:57;8.20;;;4.13;;
49626;SDS011;35527;54.616;39.786;2023-02-19T04:50:02;10.80;;;4.90;;
49626;SDS011;35527;54.616;39.786;2023-02-19T04:53:07;11.63;;;5.03;;
49626;SDS011;35527;54.616;39.786;2023-02-19T04:56:12;10.77;;;5.28;;
49626;SDS011;35527;54.616;39.786;2023-02-19T04:59:20;11.70;;;6.22;;
49626;SDS011;35527;54.616;39.786;2023-02-19T05:02:24;10.75;;;4.95;;
49626;SDS011;35527;54.616;39.786;2023-02-19T05:05:30;8.82;;;3.38;;
49626;SDS011;35527;54.616;39.786;2023-02-19T05:08:34;9.05;;;3.80;;
49626;SDS011;35527;54.616;39.786;2023-02-19T05:11:38;7.55;;;3.85;;
49626;SDS011;35527;54.616;39.786;2023-02-19T05:14:43;9.82;;;4.75;;
49626;SDS011;35527;54.616;39.786;2023-02-19T05:17:47;10.48;;;5.07;;
49626;SDS011;35527;54.616;39.786;2023-02-19T05:20:55;10.43;;;4.50;;
49626;SDS011;35527;54.616;39.786;2023-02-19T05:23:59;7.72;;;3.35;;
49626;SDS011;35527;54.616;39.786;2023-02-19T05:27:05;10.75;;;4.32;;
49626;SDS011;35527;54.616;39.786;2023-02-19T05:30:08;12.48;;;5.82;;
49626;SDS011;35527;54.616;39.786;2023-02-19T05:33:11;12.48;;;4.38;;
49626;SDS011;35527;54.616;39.786;2023-02-19T05:36:15;9.70;;;3.90;;
49626;SDS011;35527;54.616;39.786;2023-02-19T05:39:22;10.30;;;4.30;;
49626;SDS011;35527;54.616;39.786;2023-02-19T05:42:25;11.45;;;5.55;;
49626;SDS011;35527;54.616;39.786;2023-02-19T05:45:29;13.20;;;5.40;;
49626;SDS011;35527;54.616;39.786;2023-02-19T05:48:33;11.95;;;5.22;;
49626;SDS011;35527;54.616;39.786;2023-02-19T05:51:38;12.38;;;4.53;;
49626;SDS011;35527;54.616;39.786;2023-02-19T05:54:43;9.45;;;4.20;;
49626;SDS011;35527;54.616;39.786;2023-02-19T05:57:47;10.38;;;4.38;;
49626;SDS011;35527;54.616;39.786;2023-02-19T06:00:50;10.27;;;4.70;;
49626;SDS011;35527;54.616;39.786;2023-02-19T06:03:55;9.07;;;4.00;;
49626;SDS011;35527;54.616;39.786;2023-02-19T06:07:03;10.60;;;3.90;;
49626;SDS011;35527;54.616;39.786;2023-02-19T06:10:05;9.32;;;4.82;;
49626;SDS011;35527;54.616;39.786;2023-02-19T06:13:09;11.10;;;4.22;;
49626;SDS011;35527;54.616;39.786;2023-02-19T06:16:15;10.82;;;5.47;;
49626;SDS011;35527;54.616;39.786;2023-02-19T06:19:21;9.90;;;3.92;;
49626;SDS011;35527;54.616;39.786;2023-02-19T06:22:24;12.52;;;5.05;;
49626;SDS011;35527;54.616;39.786;2023-02-19T06:25:51;12.68;;;5.07;;
49626;SDS011;35527;54.616;39.786;2023-02-19T06:28:55;10.32;;;5.35;;
49626;SDS011;35527;54.616;39.786;2023-02-19T06:32:00;12.00;;;6.22;;
49626;SDS011;35527;54.616;39.786;2023-02-19T06:38:09;12.63;;;4.55;;
49626;SDS011;35527;54.616;39.786;2023-02-19T06:41:17;10.65;;;4.90;;
49626;SDS011;35527;54.616;39.786;2023-02-19T06:44:20;10.15;;;4.78;;
49626;SDS011;35527;54.616;39.786;2023-02-19T06:47:23;12.27;;;5.82;;
49626;SDS011;35527;54.616;39.786;2023-02-19T06:50:27;10.63;;;3.83;;
49626;SDS011;35527;54.616;39.786;2023-02-19T06:53:56;11.30;;;5.22;;
49626;SDS011;35527;54.616;39.786;2023-02-19T06:57:00;10.55;;;5.72;;
49626;SDS011;35527;54.616;39.786;2023-02-19T07:00:04;12.40;;;5.55;;
49626;SDS011;35527;54.616;39.786;2023-02-19T07:03:08;8.43;;;2.42;;
49626;SDS011;35527;54.616;39.786;2023-02-19T07:06:20;10.07;;;4.03;;
49626;SDS011;35527;54.616;39.786;2023-02-19T07:09:30;12.93;;;5.63;;
49626;SDS011;35527;54.616;39.786;2023-02-19T07:12:35;13.32;;;6.32;;
49626;SDS011;35527;54.616;39.786;2023-02-19T07:15:38;11.65;;;5.40;;
49626;SDS011;35527;54.616;39.786;2023-02-19T07:18:45;10.13;;;3.95;;
49626;SDS011;35527;54.616;39.786;2023-02-19T07:21:49;8.30;;;3.60;;
49626;SDS011;35527;54.616;39.786;2023-02-19T07:25:17;7.97;;;4.13;;
49626;SDS011;35527;54.616;39.786;2023-02-19T07:28:20;7.90;;;4.00;;
49626;SDS011;35527;54.616;39.786;2023-02-19T07:31:24;8.18;;;3.80;;
49626;SDS011;35527;54.616;39.786;2023-02-19T07:34:27;11.48;;;5.38;;
49626;SDS011;35527;54.616;39.786;2023-02-19T07:37:31;11.57;;;5.60;;
49626;SDS011;35527;54.616;39.786;2023-02-19T07:40:34;9.15;;;3.78;;
49626;SDS011;35527;54.616;39.786;2023-02-19T07:43:43;9.90;;;4.43;;
49626;SDS011;35527;54.616;39.786;2023-02-19T07:46:49;10.65;;;5.38;;
49626;SDS011;35527;54.616;39.786;2023-02-19T07:49:52;9.57;;;4.50;;
49626;SDS011;35527;54.616;39.786;2023-02-19T07:52:56;9.20;;;4.55;;
49626;SDS011;35527;54.616;39.786;2023-02-19T07:56:03;9.85;;;4.13;;
49626;SDS011;35527;54.616;39.786;2023-02-19T07:59:10;11.07;;;4.30;;
49626;SDS011;35527;54.616;39.786;2023-02-19T08:02:18;8.80;;;4.25;;
49626;SDS011;35527;54.616;39.786;2023-02-19T08:05:42;7.63;;;3.80;;
49626;SDS011;35527;54.616;39.786;2023-02-19T08:08:46;8.65;;;4.10;;
49626;SDS011;35527;54.616;39.786;2023-02-19T08:11:52;8.43;;;4.00;;
49626;SDS011;35527;54.616;39.786;2023-02-19T08:15:13;9.60;;;4.53;;
49626;SDS011;35527;54.616;39.786;2023-02-19T08:18:17;11.18;;;4.50;;
49626;SDS011;35527;54.616;39.786;2023-02-19T08:21:22;11.13;;;4.55;;
49626;SDS011;35527;54.616;39.786;2023-02-19T08:24:29;7.43;;;3.55;;
49626;SDS011;35527;54.616;39.786;2023-02-19T08:27:34;11.32;;;4.75;;
49626;SDS011;35527;54.616;39.786;2023-02-19T08:30:38;10.25;;;3.60;;
49626;SDS011;35527;54.616;39.786;2023-02-19T08:33:44;13.90;;;5.80;;
49626;SDS011;35527;54.616;39.786;2023-02-19T08:37:14;7.88;;;3.50;;
49626;SDS011;35527;54.616;39.786;2023-02-19T08:40:20;8.95;;;3.67;;
49626;SDS011;35527;54.616;39.786;2023-02-19T08:43:24;9.98;;;4.65;;
49626;SDS011;35527;54.616;39.786;2023-02-19T08:46:27;9.80;;;4.68;;
49626;SDS011;35527;54.616;39.786;2023-02-19T08:49:30;10.90;;;5.13;;
49626;SDS011;35527;54.616;39.786;2023-02-19T08:52:35;9.43;;;4.00;;
49626;SDS011;35527;54.616;39.786;2023-02-19T08:55:38;10.35;;;4.25;;
49626;SDS011;35527;54.616;39.786;2023-02-19T08:58:41;10.80;;;4.05;;
49626;SDS011;35527;54.616;39.786;2023-02-19T09:01:48;8.15;;;4.38;;
49626;SDS011;35527;54.616;39.786;2023-02-19T09:04:54;10.52;;;4.57;;
49626;SDS011;35527;54.616;39.786;2023-02-19T09:07:59;11.48;;;4.65;;
49626;SDS011;35527;54.616;39.786;2023-02-19T09:11:04;11.02;;;5.00;;
49626;SDS011;35527;54.616;39.786;2023-02-19T09:14:15;9.73;;;4.18;;
49626;SDS011;35527;54.616;39.786;2023-02-19T09:17:21;8.93;;;4.22;;
49626;SDS011;35527;54.616;39.786;2023-02-19T09:20:27;10.82;;;4.35;;
49626;SDS011;35527;54.616;39.786;2023-02-19T09:23:34;10.52;;;4.80;;
49626;SDS011;35527;54.616;39.786;2023-02-19T09:26:38;9.70;;;4.32;;
49626;SDS011;35527;54.616;39.786;2023-02-19T09:29:42;7.90;;;3.45;;
49626;SDS011;35527;54.616;39.786;2023-02-19T09:32:46;11.93;;;4.57;;
49626;SDS011;35527;54.616;39.786;2023-02-19T09:35:51;9.95;;;4.07;;
49626;SDS011;35527;54.616;39.786;2023-02-19T09:38:54;10.50;;;4.68;;
49626;SDS011;35527;54.616;39.786;2023-02-19T09:41:57;8.40;;;3.25;;
49626;SDS011;35527;54.616;39.786;2023-02-19T09:45:04;10.25;;;4.60;;
49626;SDS011;35527;54.616;39.786;2023-02-19T09:48:08;9.95;;;4.20;;
49626;SDS011;35527;54.616;39.786;2023-02-19T09:51:14;10.40;;;3.65;;
49626;SDS011;35527;54.616;39.786;2023-02-19T09:54:25;11.20;;;4.25;;
49626;SDS011;35527;54.616;39.786;2023-02-19T09:57:31;12.25;;;4.18;;
49626;SDS011;35527;54.616;39.786;2023-02-19T10:00:36;10.23;;;4.00;;
49626;SDS011;35527;54.616;39.786;2023-02-19T10:03:43;11.18;;;3.83;;
49626;SDS011;35527;54.616;39.786;2023-02-19T10:06:48;10.02;;;4.47;;
49626;SDS011;35527;54.616;39.786;2023-02-19T10:10:15;8.00;;;3.67;;
49626;SDS011;35527;54.616;39.786;2023-02-19T10:13:21;11.55;;;5.22;;
49626;SDS011;35527;54.616;39.786;2023-02-19T10:16:30;10.80;;;4.50;;
49626;SDS011;35527;54.616;39.786;2023-02-19T10:19:34;10.40;;;4.43;;
49626;SDS011;35527;54.616;39.786;2023-02-19T10:22:38;9.38;;;4.05;;
49626;SDS011;35527;54.616;39.786;2023-02-19T10:25:54;10.43;;;5.45;;
49626;SDS011;35527;54.616;39.786;2023-02-19T10:28:58;9.80;;;4.05;;
49626;SDS011;35527;54.616;39.786;2023-02-19T10:32:21;11.50;;;3.88;;
49626;SDS011;35527;54.616;39.786;2023-02-19T10:35:26;12.25;;;4.72;;
49626;SDS011;35527;54.616;39.786;2023-02-19T10:38:34;9.50;;;4.43;;
49626;SDS011;35527;54.616;39.786;2023-02-19T10:41:40;12.98;;;4.97;;
49626;SDS011;35527;54.616;39.786;2023-02-19T10:44:51;13.57;;;5.63;;
49626;SDS011;35527;54.616;39.786;2023-02-19T10:48:30;9.80;;;4.75;;
49626;SDS011;35527;54.616;39.786;2023-02-19T10:51:37;14.77;;;5.13;;
49626;SDS011;35527;54.616;39.786;2023-02-19T10:54:43;10.90;;;4.68;;
49626;SDS011;35527;54.616;39.786;2023-02-19T10:57:50;13.93;;;5.03;;
49626;SDS011;35527;54.616;39.786;2023-02-19T11:01:09;13.52;;;5.45;;
49626;SDS011;35527;54.616;39.786;2023-02-19T11:05:33;13.90;;;6.45;;
49626;SDS011;35527;54.616;39.786;2023-02-19T11:08:21;12.30;;;4.80;;
49626;SDS011;35527;54.616;39.786;2023-02-19T11:11:30;17.10;;;6.18;;
49626;SDS011;35527;54.616;39.786;2023-02-19T11:14:40;11.65;;;4.85;;
49626;SDS011;35527;54.616;39.786;2023-02-19T11:17:58;11.38;;;5.20;;
49626;SDS011;35527;54.616;39.786;2023-02-19T11:21:03;9.30;;;3.63;;
49626;SDS011;35527;54.616;39.786;2023-02-19T11:24:12;9.93;;;4.57;;
49626;SDS011;35527;54.616;39.786;2023-02-19T11:27:28;13.02;;;6.18;;
49626;SDS011;35527;54.616;39.786;2023-02-19T11:34:25;14.57;;;5.50;;
49626;SDS011;35527;54.616;39.786;2023-02-19T11:37:11;13.55;;;6.07;;
49626;SDS011;35527;54.616;39.786;2023-02-19T11:40:19;14.95;;;6.68;;
49626;SDS011;35527;54.616;39.786;2023-02-19T11:44:07;11.13;;;4.47;;
49626;SDS011;35527;54.616;39.786;2023-02-19T11:53:47;15.80;;;6.47;;
49626;SDS011;35527;54.616;39.786;2023-02-19T12:00:35;14.60;;;5.85;;
49626;SDS011;35527;54.616;39.786;2023-02-19T12:10:20;6.65;;;3.20;;
49626;SDS011;35527;54.616;39.786;2023-02-19T12:13:36;12.70;;;5.95;;
49626;SDS011;35527;54.616;39.786;2023-02-19T12:20:32;14.38;;;5.43;;
49626;SDS011;35527;54.616;39.786;2023-02-19T12:27:25;12.63;;;5.70;;
49626;SDS011;35527;54.616;39.786;2023-02-19T12:44:03;10.57;;;4.05;;
49626;SDS011;35527;54.616;39.786;2023-02-19T12:47:24;14.52;;;5.78;;
49626;SDS011;35527;54.616;39.786;2023-02-19T12:50:38;16.58;;;5.85;;
49626;SDS011;35527;54.616;39.786;2023-02-19T12:53:47;15.63;;;5.63;;
49626;SDS011;35527;54.616;39.786;2023-02-19T12:57:01;17.15;;;7.38;;
49626;SDS011;35527;54.616;39.786;2023-02-19T13:08:25;14.93;;;6.20;;
49626;SDS011;35527;54.616;39.786;2023-02-19T13:11:15;14.38;;;5.95;;
49626;SDS011;35527;54.616;39.786;2023-02-19T13:14:35;14.85;;;6.20;;
49626;SDS011;35527;54.616;39.786;2023-02-19T13:17:46;13.68;;;5.60;;
49626;SDS011;35527;54.616;39.786;2023-02-19T13:20:54;15.18;;;6.57;;
49626;SDS011;35527;54.616;39.786;2023-02-19T13:24:02;14.57;;;5.03;;
49626;SDS011;35527;54.616;39.786;2023-02-19T13:30:59;17.88;;;7.05;;
49626;SDS011;35527;54.616;39.786;2023-02-19T13:37:18;13.82;;;6.03;;
49626;SDS011;35527;54.616;39.786;2023-02-19T13:43:29;13.20;;;5.35;;
49626;SDS011;35527;54.616;39.786;2023-02-19T13:46:40;14.88;;;7.00;;
49626;SDS011;35527;54.616;39.786;2023-02-19T13:49:49;17.58;;;7.50;;
49626;SDS011;35527;54.616;39.786;2023-02-19T13:52:56;16.35;;;7.13;;
49626;SDS011;35527;54.616;39.786;2023-02-19T13:56:03;15.80;;;7.35;;
49626;SDS011;35527;54.616;39.786;2023-02-19T13:59:35;20.77;;;6.65;;
49626;SDS011;35527;54.616;39.786;2023-02-19T14:02:45;16.52;;;6.13;;
49626;SDS011;35527;54.616;39.786;2023-02-19T14:06:02;16.58;;;6.97;;
49626;SDS011;35527;54.616;39.786;2023-02-19T14:12:55;17.85;;;6.82;;
49626;SDS011;35527;54.616;39.786;2023-02-19T14:15:58;17.80;;;8.38;;
49626;SDS011;35527;54.616;39.786;2023-02-19T14:19:00;18.95;;;6.45;;
49626;SDS011;35527;54.616;39.786;2023-02-19T14:22:57;19.05;;;7.40;;
49626;SDS011;35527;54.616;39.786;2023-02-19T14:25:52;25.20;;;8.05;;
49626;SDS011;35527;54.616;39.786;2023-02-19T14:29:00;15.63;;;5.82;;
49626;SDS011;35527;54.616;39.786;2023-02-19T14:32:03;17.88;;;7.95;;
49626;SDS011;35527;54.616;39.786;2023-02-19T14:35:34;14.35;;;5.82;;
49626;SDS011;35527;54.616;39.786;2023-02-19T14:38:50;12.70;;;6.15;;
49626;SDS011;35527;54.616;39.786;2023-02-19T14:41:56;12.68;;;5.85;;
49626;SDS011;35527;54.616;39.786;2023-02-19T14:45:04;17.63;;;6.60;;
49626;SDS011;35527;54.616;39.786;2023-02-19T14:48:35;17.83;;;7.47;;
49626;SDS011;35527;54.616;39.786;2023-02-19T14:51:46;20.20;;;6.95;;
49626;SDS011;35527;54.616;39.786;2023-02-19T14:55:35;13.77;;;6.05;;
49626;SDS011;35527;54.616;39.786;2023-02-19T14:58:42;15.98;;;6.93;;
49626;SDS011;35527;54.616;39.786;2023-02-19T15:01:45;14.20;;;4.28;;
49626;SDS011;35527;54.616;39.786;2023-02-19T15:04:55;16.55;;;6.80;;
49626;SDS011;35527;54.616;39.786;2023-02-19T15:08:02;14.38;;;7.18;;
49626;SDS011;35527;54.616;39.786;2023-02-19T15:11:14;14.60;;;6.32;;
49626;SDS011;35527;54.616;39.786;2023-02-19T15:14:21;15.70;;;6.43;;
49626;SDS011;35527;54.616;39.786;2023-02-19T15:17:31;20.48;;;7.88;;
49626;SDS011;35527;54.616;39.786;2023-02-19T15:20:38;18.02;;;7.60;;
49626;SDS011;35527;54.616;39.786;2023-02-19T15:23:45;13.48;;;5.72;;
49626;SDS011;35527;54.616;39.786;2023-02-19T15:27:18;12.38;;;4.93;;
49626;SDS011;35527;54.616;39.786;2023-02-19T15:30:27;16.58;;;7.15;;
49626;SDS011;35527;54.616;39.786;2023-02-19T15:33:33;15.85;;;6.88;;
49626;SDS011;35527;54.616;39.786;2023-02-19T15:36:37;15.23;;;6.53;;
49626;SDS011;35527;54.616;39.786;2023-02-19T15:39:43;19.80;;;7.93;;
49626;SDS011;35527;54.616;39.786;2023-02-19T15:42:48;14.93;;;6.75;;
49626;SDS011;35527;54.616;39.786;2023-02-19T15:45:54;15.48;;;7.93;;
49626;SDS011;35527;54.616;39.786;2023-02-19T15:53:20;20.45;;;8.38;;
49626;SDS011;35527;54.616;39.786;2023-02-19T15:56:21;17.15;;;7.05;;
49626;SDS011;35527;54.616;39.786;2023-02-19T15:59:41;15.73;;;6.03;;
49626;SDS011;35527;54.616;39.786;2023-02-19T16:02:49;18.45;;;7.70;;
49626;SDS011;35527;54.616;39.786;2023-02-19T16:05:58;16.85;;;5.72;;
49626;SDS011;35527;54.616;39.786;2023-02-19T16:09:18;17.20;;;7.15;;
49626;SDS011;35527;54.616;39.786;2023-02-19T16:12:23;14.77;;;6.35;;
49626;SDS011;35527;54.616;39.786;2023-02-19T16:15:34;20.15;;;7.32;;
49626;SDS011;35527;54.616;39.786;2023-02-19T16:18:37;17.45;;;6.65;;
49626;SDS011;35527;54.616;39.786;2023-02-19T16:21:48;19.42;;;6.55;;
49626;SDS011;35527;54.616;39.786;2023-02-19T16:24:57;12.10;;;5.67;;
49626;SDS011;35527;54.616;39.786;2023-02-19T16:28:20;15.07;;;7.32;;
49626;SDS011;35527;54.616;39.786;2023-02-19T16:31:27;17.38;;;7.88;;
49626;SDS011;35527;54.616;39.786;2023-02-19T16:34:32;15.13;;;7.07;;
49626;SDS011;35527;54.616;39.786;2023-02-19T16:38:02;18.27;;;8.13;;
49626;SDS011;35527;54.616;39.786;2023-02-19T16:41:14;17.52;;;7.07;;
49626;SDS011;35527;54.616;39.786;2023-02-19T16:47:24;18.33;;;7.30;;
49626;SDS011;35527;54.616;39.786;2023-02-19T16:50:39;16.55;;;6.97;;
49626;SDS011;35527;54.616;39.786;2023-02-19T16:53:43;18.65;;;7.65;;
49626;SDS011;35527;54.616;39.786;2023-02-19T16:56:47;16.98;;;8.30;;
49626;SDS011;35527;54.616;39.786;2023-02-19T16:59:50;19.77;;;7.90;;
49626;SDS011;35527;54.616;39.786;2023-02-19T17:02:54;23.88;;;9.23;;
49626;SDS011;35527;54.616;39.786;2023-02-19T17:06:00;21.70;;;7.43;;
49626;SDS011;35527;54.616;39.786;2023-02-19T17:09:04;17.77;;;6.70;;
49626;SDS011;35527;54.616;39.786;2023-02-19T17:12:33;14.40;;;6.28;;
49626;SDS011;35527;54.616;39.786;2023-02-19T17:15:36;18.20;;;7.68;;
49626;SDS011;35527;54.616;39.786;2023-02-19T17:18:43;18.75;;;6.88;;
49626;SDS011;35527;54.616;39.786;2023-02-19T17:21:47;16.42;;;7.22;;
49626;SDS011;35527;54.616;39.786;2023-02-19T17:24:50;16.42;;;7.47;;
49626;SDS011;35527;54.616;39.786;2023-02-19T17:27:56;20.05;;;6.50;;
49626;SDS011;35527;54.616;39.786;2023-02-19T17:31:00;13.25;;;6.28;;
49626;SDS011;35527;54.616;39.786;2023-02-19T17:34:04;22.40;;;8.65;;
49626;SDS011;35527;54.616;39.786;2023-02-19T17:37:09;13.85;;;6.50;;
49626;SDS011;35527;54.616;39.786;2023-02-19T17:40:28;16.15;;;5.57;;
49626;SDS011;35527;54.616;39.786;2023-02-19T17:43:34;22.25;;;7.78;;
49626;SDS011;35527;54.616;39.786;2023-02-19T17:46:38;10.45;;;5.00;;
49626;SDS011;35527;54.616;39.786;2023-02-19T17:50:11;14.68;;;6.00;;
49626;SDS011;35527;54.616;39.786;2023-02-19T17:53:17;16.15;;;7.43;;
49626;SDS011;35527;54.616;39.786;2023-02-19T17:56:21;17.08;;;7.03;;
49626;SDS011;35527;54.616;39.786;2023-02-19T17:59:26;21.33;;;8.25;;
49626;SDS011;35527;54.616;39.786;2023-02-19T18:02:32;19.45;;;5.68;;
49626;SDS011;35527;54.616;39.786;2023-02-19T18:05:37;18.17;;;6.90;;
49626;SDS011;35527;54.616;39.786;2023-02-19T18:08:45;16.58;;;8.05;;
49626;SDS011;35527;54.616;39.786;2023-02-19T18:11:56;16.15;;;6.15;;
49626;SDS011;35527;54.616;39.786;2023-02-19T18:15:20;22.05;;;8.38;;
49626;SDS011;35527;54.616;39.786;2023-02-19T18:18:28;16.50;;;6.63;;
49626;SDS011;35527;54.616;39.786;2023-02-19T18:21:32;15.38;;;6.28;;
49626;SDS011;35527;54.616;39.786;2023-02-19T18:24:35;14.75;;;6.55;;
49626;SDS011;35527;54.616;39.786;2023-02-19T18:27:41;18.60;;;7.57;;
49626;SDS011;35527;54.616;39.786;2023-02-19T18:30:44;17.33;;;7.03;;
49626;SDS011;35527;54.616;39.786;2023-02-19T18:33:47;16.40;;;7.25;;
49626;SDS011;35527;54.616;39.786;2023-02-19T18:36:54;17.45;;;6.80;;
49626;SDS011;35527;54.616;39.786;2023-02-19T18:40:07;24.08;;;7.18;;
49626;SDS011;35527;54.616;39.786;2023-02-19T18:43:14;12.82;;;6.22;;
49626;SDS011;35527;54.616;39.786;2023-02-19T18:46:19;22.30;;;7.15;;
49626;SDS011;35527;54.616;39.786;2023-02-19T18:49:22;19.08;;;6.90;;
49626;SDS011;35527;54.616;39.786;2023-02-19T18:52:28;14.90;;;5.53;;
49626;SDS011;35527;54.616;39.786;2023-02-19T18:55:31;19.13;;;7.30;;
49626;SDS011;35527;54.616;39.786;2023-02-19T18:58:34;17.40;;;6.07;;
49626;SDS011;35527;54.616;39.786;2023-02-19T19:01:37;14.75;;;6.10;;
49626;SDS011;35527;54.616;39.786;2023-02-19T19:04:41;16.33;;;6.88;;
49626;SDS011;35527;54.616;39.786;2023-02-19T19:07:45;14.60;;;5.45;;
49626;SDS011;35527;54.616;39.786;2023-02-19T19:10:48;18.10;;;6.95;;
49626;SDS011;35527;54.616;39.786;2023-02-19T19:13:55;17.42;;;5.90;;
49626;SDS011;35527;54.616;39.786;2023-02-19T19:16:58;18.38;;;7.20;;
49626;SDS011;35527;54.616;39.786;2023-02-19T19:20:02;19.58;;;7.97;;
49626;SDS011;35527;54.616;39.786;2023-02-19T19:23:05;19.25;;;7.70;;
49626;SDS011;35527;54.616;39.786;2023-02-19T19:26:13;18.55;;;6.75;;
49626;SDS011;35527;54.616;39.786;2023-02-19T19:29:25;13.20;;;6.53;;
49626;SDS011;35527;54.616;39.786;2023-02-19T19:32:31;17.50;;;7.40;;
49626;SDS011;35527;54.616;39.786;2023-02-19T19:35:35;14.57;;;7.30;;
49626;SDS011;35527;54.616;39.786;2023-02-19T19:38:41;14.98;;;5.75;;
49626;SDS011;35527;54.616;39.786;2023-02-19T19:41:51;13.80;;;6.63;;
49626;SDS011;35527;54.616;39.786;2023-02-19T19:44:55;19.27;;;6.63;;
49626;SDS011;35527;54.616;39.786;2023-02-19T19:47:59;13.30;;;5.22;;
49626;SDS011;35527;54.616;39.786;2023-02-19T19:51:04;15.07;;;6.30;;
49626;SDS011;35527;54.616;39.786;2023-02-19T19:54:09;14.55;;;6.68;;
49626;SDS011;35527;54.616;39.786;2023-02-19T19:57:14;18.45;;;8.43;;
49626;SDS011;35527;54.616;39.786;2023-02-19T20:00:19;17.50;;;7.05;;
49626;SDS011;35527;54.616;39.786;2023-02-19T20:03:27;17.58;;;7.35;;
49626;SDS011;35527;54.616;39.786;2023-02-19T20:06:38;18.05;;;7.38;;
49626;SDS011;35527;54.616;39.786;2023-02-19T20:09:46;21.70;;;7.80;;